MZBZ/BZE METAR and TAF weather

Enter ICAO airport designator
Station Type Date Time Source
MZBZ METAR 2022/06/29 00:00 UTC NOAA

MZBZ 290000Z 09006KT 9999 FEW024 29/25 A2996 Q1014 NOSIG


Station Type Date Time Source
MZBZ Decoded METAR 2022/06/29 00:00 UTC NOAA

Belize / Phillip Goldston Intl. Airport, Belize (MZBZ) 17-32N 088-18W 5M
Jun 28, 2022 - 08:00 PM EDT / 2022.06.29 0000 UTC
Wind: from the E (090 degrees) at 7 MPH (6 KT):0
Visibility: greater than 7 mile(s):0
Sky conditions: mostly clear
Temperature: 84 F (29 C)
Dew Point: 77 F (25 C)
Relative Humidity: 79%
Pressure (altimeter): 29.96 in. Hg (1014 hPa)
ob: MZBZ 290000Z 09006KT 9999 FEW024 29/25 A2996 Q1014 NOSIG
cycle: 0

Station Type Date Time Source
MZBZ TAF 2022/06/28 18:38 UTC NOAA

TAF MZBZ 281500Z 2818/2918 09008KT 9999 SCT023

Example: see airport list